METAR and TAF information
METAR FOR LGSK
ADDS - METARS form results

(0548 UTC 26 May 2018)
Data provider http://aviationweather.gov/adds/metars/
 
METAR text: LGSK 260450Z 35006KT 9999 FEW025 23/17 Q1014
Conditions at: LGSK (SKIATHOS ISLAND , GR) observed 0450 UTC 26 May 2018
Temperature: 23.0°C (73°F)
Dewpoint: 17.0°C (63°F) [RH = 69%]
Pressure (altimeter): 29.94 inches Hg (1014.0 mb)
Winds: from the N (350 degrees) at 7 MPH (6 knots; 3.1 m/s)
Visibility: 6 or more miles (10+ km)
Ceiling: at least 12,000 feet AGL
Clouds: few clouds at 2500 feet AGL
Weather: no significant weather observed at this time

 Airport map

 Runway information
Runway 02 Runway length 5341 ft Runway width 98 ft
Runway elevation 9 ft Runway displaced threshold 190 ft Runway heading 19
Runway 20 Runway length 5341 ft Runway width 98 ft
Runway elevation 54 ft Runway displaced threshold 0 ft Runway heading 199

 Airport frequencies
Type A/G Name SKIATHOS R Frequency 563.7 MHZ
Type APP Name SKIATHOS A Frequency 126.05 MHZ
Type TWR Name SKIATHOS T Frequency 126.05 MHZ

 Airport & nearby NAVAIDS
Type NDB Name Skiathos Frequency 326 KHZ




Powered by VAM | Theme by g1g@byt3



Copyright © 2016 - 2018 Olympic Airlines Virtual. All rights reserved.

Olympic Airlines, Olympic Airways etc. are registered trademarks of
their respective owners and are hereby used only for educational
purposes.
Legal disclaimer